Time;durP1;ratioP1;P1;durP2;ratioP2;P2;SDS_P1;SDS_P2;PMS_P1;PMS_P2;Temp;Humidity;BMP_temperature;BMP_pressure;BME280_temperature;BME280_humidity;BME280_pressure;Samples;Min_cycle;Max_cycle;Signal;HPM_P1;HPM_P2
2022/05/12 00:00:42;;;;;;;4.35;3.03;;;;;;;;;;5015426;28;20088;-70
2022/05/12 00:03:13;;;;;;;6.03;3.50;;;;;;;;;;5015439;28;20556;-70
2022/05/12 00:05:41;;;;;;;3.97;3.13;;;;;;;;;;5015929;28;20050;-70
2022/05/12 00:08:10;;;;;;;5.90;2.92;;;;;;;;;;5015216;28;20056;-70
2022/05/12 00:10:40;;;;;;;5.20;3.15;;;;;;;;;;5015264;28;20135;-70
2022/05/12 00:13:08;;;;;;;3.92;3.00;;;;;;;;;;5014792;28;20052;-70
2022/05/12 00:15:38;;;;;;;5.75;4.40;;;;;;;;;;5015464;28;20507;-69
2022/05/12 00:18:08;;;;;;;3.80;3.40;;;;;;;;;;5015300;28;20050;-70
2022/05/12 00:20:41;;;;;;;5.10;3.08;;;;;;;;;;5014736;28;20097;-70
2022/05/12 00:23:23;;;;;;;3.17;2.80;;;;;;;;;;5015151;28;20050;-70
2022/05/12 00:25:51;;;;;;;5.38;3.00;;;;;;;;;;5015635;28;20129;-70
2022/05/12 00:28:21;;;;;;;7.00;3.38;;;;;;;;;;5015428;28;20508;-70
2022/05/12 00:30:50;;;;;;;5.88;3.58;;;;;;;;;;5014533;28;20038;-70
2022/05/12 00:33:22;;;;;;;5.28;3.13;;;;;;;;;;5015272;28;20049;-70
2022/05/12 00:35:50;;;;;;;4.60;2.88;;;;;;;;;;5014517;28;20520;-70
2022/05/12 00:38:19;;;;;;;5.53;3.25;;;;;;;;;;5014977;28;20107;-70
2022/05/12 00:40:47;;;;;;;8.48;3.53;;;;;;;;;;5014331;28;20049;-69
2022/05/12 00:43:37;;;;;;;8.60;3.47;;;;;;;;;;5014852;28;20107;-69
2022/05/12 00:46:12;;;;;;;6.40;3.70;;;;;;;;;;5014634;28;20139;-69
2022/05/12 00:48:41;;;;;;;7.43;3.15;;;;;;;;;;5014951;28;20057;-69
2022/05/12 00:51:11;;;;;;;5.68;2.92;;;;;;;;;;5014320;28;20047;-70
2022/05/12 00:53:41;;;;;;;5.72;3.45;;;;;;;;;;5013430;28;20038;-70
2022/05/12 00:56:12;;;;;;;6.75;3.00;;;;;;;;;;5014290;28;20053;-70
2022/05/12 00:58:41;;;;;;;6.03;3.17;;;;;;;;;;5013688;28;20046;-68
2022/05/12 01:01:10;;;;;;;14.20;3.72;;;;;;;;;;5014221;28;20052;-69
2022/05/12 01:03:40;;;;;;;8.52;3.70;;;;;;;;;;5013773;28;20180;-69
2022/05/12 01:06:08;;;;;;;7.22;3.35;;;;;;;;;;5013290;28;20050;-69
2022/05/12 01:08:36;;;;;;;3.90;3.08;;;;;;;;;;5014006;28;20050;-69
2022/05/12 01:11:09;;;;;;;8.90;5.57;;;;;;;;;;5012698;28;20056;-68
2022/05/12 01:13:37;;;;;;;6.38;4.05;;;;;;;;;;5028475;28;20104;-69
2022/05/12 01:16:06;;;;;;;6.35;3.83;;;;;;;;;;5014072;28;20140;-68
2022/05/12 01:18:39;;;;;;;8.40;3.72;;;;;;;;;;5014114;28;20080;-69
2022/05/12 01:21:11;;;;;;;4.07;3.67;;;;;;;;;;5014052;28;20060;-68
2022/05/12 01:23:41;;;;;;;5.82;3.55;;;;;;;;;;5014365;28;20374;-69
2022/05/12 01:26:15;;;;;;;7.15;4.05;;;;;;;;;;5013917;28;20456;-70
2022/05/12 01:29:01;;;;;;;5.15;3.63;;;;;;;;;;5013734;28;20049;-69
2022/05/12 01:31:29;;;;;;;4.53;4.03;;;;;;;;;;5013470;28;20144;-69
2022/05/12 01:33:57;;;;;;;7.20;4.00;;;;;;;;;;5013663;28;20060;-69
2022/05/12 01:36:25;;;;;;;4.63;3.72;;;;;;;;;;5013394;28;20453;-68
2022/05/12 01:38:55;;;;;;;6.68;4.47;;;;;;;;;;5013878;28;20060;-68
2022/05/12 01:41:22;;;;;;;4.40;4.00;;;;;;;;;;5012840;28;20128;-70
2022/05/12 01:43:51;;;;;;;8.05;4.00;;;;;;;;;;5013666;28;20066;-69
2022/05/12 01:46:21;;;;;;;5.47;4.22;;;;;;;;;;5013969;28;20571;-69
2022/05/12 01:48:49;;;;;;;6.90;4.05;;;;;;;;;;5013603;28;20049;-68
2022/05/12 01:51:17;;;;;;;9.68;4.35;;;;;;;;;;5013838;28;20044;-68
2022/05/12 01:53:44;;;;;;;5.35;4.38;;;;;;;;;;5013623;28;20552;-69
2022/05/12 01:56:13;;;;;;;7.55;4.57;;;;;;;;;;5013804;28;20073;-69
2022/05/12 01:58:41;;;;;;;6.50;3.80;;;;;;;;;;5013246;28;20095;-71
2022/05/12 02:01:11;;;;;;;6.18;4.60;;;;;;;;;;5013752;28;20046;-69
2022/05/12 02:03:41;;;;;;;5.40;3.85;;;;;;;;;;5013347;28;20045;-69
2022/05/12 02:06:09;;;;;;;8.18;3.38;;;;;;;;;;5013440;28;20050;-68
2022/05/12 02:08:37;;;;;;;7.60;4.30;;;;;;;;;;5013713;28;20053;-68
2022/05/12 02:11:07;;;;;;;5.70;3.92;;;;;;;;;;5013366;28;20046;-69
2022/05/12 02:13:36;;;;;;;6.65;3.75;;;;;;;;;;5013490;28;20053;-68
2022/05/12 02:16:05;;;;;;;4.65;4.10;;;;;;;;;;5013413;28;20054;-69
2022/05/12 02:18:34;;;;;;;4.78;4.18;;;;;;;;;;5013267;28;20413;-68
2022/05/12 02:21:04;;;;;;;11.20;4.00;;;;;;;;;;5013068;28;20081;-69
2022/05/12 02:23:33;;;;;;;4.78;3.95;;;;;;;;;;5013251;28;20469;-69
2022/05/12 02:26:03;;;;;;;4.78;4.30;;;;;;;;;;5013488;28;20433;-68
2022/05/12 02:28:31;;;;;;;7.07;4.40;;;;;;;;;;5013553;28;20057;-69
2022/05/12 02:31:00;;;;;;;5.00;3.78;;;;;;;;;;5013022;28;20046;-69
2022/05/12 02:33:28;;;;;;;10.32;5.15;;;;;;;;;;5013212;28;20069;-68
2022/05/12 02:35:56;;;;;;;8.55;5.20;;;;;;;;;;5013079;28;20136;-68
2022/05/12 02:38:24;;;;;;;7.63;5.85;;;;;;;;;;5013110;28;20077;-67
2022/05/12 02:40:53;;;;;;;8.32;5.38;;;;;;;;;;5013176;28;20057;-71
2022/05/12 02:43:24;;;;;;;12.35;6.47;;;;;;;;;;5012928;28;20489;-68
2022/05/12 02:45:57;;;;;;;14.52;6.95;;;;;;;;;;5012892;28;20054;-68
2022/05/12 02:48:27;;;;;;;8.57;7.50;;;;;;;;;;5012918;28;20048;-68
2022/05/12 02:50:56;;;;;;;9.52;6.47;;;;;;;;;;5013335;28;20405;-68
2022/05/12 02:53:25;;;;;;;7.15;5.80;;;;;;;;;;5014804;28;20045;-70
2022/05/12 02:55:58;;;;;;;9.55;6.40;;;;;;;;;;5017026;28;20511;-68
2022/05/12 02:58:28;;;;;;;8.63;6.40;;;;;;;;;;5016700;28;20140;-68
2022/05/12 03:00:57;;;;;;;10.43;7.10;;;;;;;;;;5016202;28;20042;-67
2022/05/12 03:03:26;;;;;;;8.02;6.68;;;;;;;;;;5016608;28;20052;-70
2022/05/12 03:05:55;;;;;;;9.90;6.20;;;;;;;;;;5016261;28;20042;-68
2022/05/12 03:08:23;;;;;;;7.30;6.55;;;;;;;;;;5016802;28;20100;-69
2022/05/12 03:10:54;;;;;;;9.27;6.07;;;;;;;;;;5016225;28;20144;-70
2022/05/12 03:13:23;;;;;;;10.30;6.22;;;;;;;;;;5016493;28;20424;-67
2022/05/12 03:15:51;;;;;;;8.75;6.15;;;;;;;;;;5016758;28;20050;-68
2022/05/12 03:18:19;;;;;;;10.85;6.60;;;;;;;;;;5016474;28;20125;-69
2022/05/12 03:20:47;;;;;;;14.65;6.60;;;;;;;;;;5015811;28;20054;-68
2022/05/12 03:23:22;;;;;;;8.55;6.35;;;;;;;;;;5016223;28;20131;-69
2022/05/12 03:25:51;;;;;;;10.88;6.72;;;;;;;;;;5016192;28;20046;-68
2022/05/12 03:28:20;;;;;;;10.38;6.13;;;;;;;;;;5015894;28;20519;-68
2022/05/12 03:30:48;;;;;;;8.10;6.28;;;;;;;;;;5016022;28;20042;-68
2022/05/12 03:33:16;;;;;;;7.45;6.65;;;;;;;;;;5015879;28;20050;-69
2022/05/12 03:35:45;;;;;;;11.32;7.07;;;;;;;;;;5015519;28;20058;-69
2022/05/12 03:38:14;;;;;;;12.18;8.02;;;;;;;;;;5015889;28;20441;-69
2022/05/12 03:40:42;;;;;;;9.85;8.18;;;;;;;;;;5015642;28;20049;-68
2022/05/12 03:44:46;;;;;;;14.38;6.50;;;;;;;;;;5015673;28;20046;-69
2022/05/12 03:46:02;;;;;;;11.38;6.40;;;;;;;;;;5014995;28;20046;-69
2022/05/12 03:48:30;;;;;;;8.88;7.00;;;;;;;;;;5015483;28;20422;-69
2022/05/12 03:50:58;;;;;;;9.07;6.70;;;;;;;;;;5014953;28;20041;-69
2022/05/12 03:53:27;;;;;;;11.25;8.07;;;;;;;;;;5016008;28;20476;-69
2022/05/12 03:55:56;;;;;;;7.57;6.68;;;;;;;;;;5015173;28;20046;-69
2022/05/12 03:58:25;;;;;;;8.30;7.32;;;;;;;;;;5015767;28;20092;-69
2022/05/12 04:00:54;;;;;;;9.77;6.93;;;;;;;;;;5015414;28;20116;-69
2022/05/12 04:03:23;;;;;;;12.23;7.63;;;;;;;;;;5015420;28;20046;-69
2022/05/12 04:05:52;;;;;;;10.70;7.28;;;;;;;;;;5014999;28;20077;-69
2022/05/12 04:08:21;;;;;;;10.93;7.07;;;;;;;;;;5030203;28;20489;-67
2022/05/12 04:10:51;;;;;;;11.50;6.22;;;;;;;;;;5015250;28;20042;-69
2022/05/12 04:13:20;;;;;;;14.00;7.60;;;;;;;;;;5014943;28;20497;-69
2022/05/12 04:15:48;;;;;;;9.25;6.28;;;;;;;;;;5015067;28;20049;-69
2022/05/12 04:18:17;;;;;;;7.90;6.70;;;;;;;;;;5013300;28;20450;-69
2022/05/12 04:20:45;;;;;;;11.80;6.38;;;;;;;;;;5015095;28;20054;-69
2022/05/12 04:23:14;;;;;;;9.13;6.63;;;;;;;;;;5014981;28;20405;-69
2022/05/12 04:25:42;;;;;;;10.80;6.65;;;;;;;;;;5014875;28;20137;-69
2022/05/12 04:28:11;;;;;;;8.55;6.57;;;;;;;;;;5014538;28;20060;-69
2022/05/12 04:30:40;;;;;;;9.50;7.65;;;;;;;;;;5014911;28;20038;-69
2022/05/12 04:35:55;;;;;;;9.85;6.25;;;;;;;;;;5014535;28;20038;-69
2022/05/12 04:38:26;;;;;;;8.18;5.93;;;;;;;;;;5015117;28;20076;-69
2022/05/12 04:40:56;;;;;;;7.80;4.65;;;;;;;;;;5014523;28;20048;-69
2022/05/12 04:43:27;;;;;;;10.38;5.75;;;;;;;;;;5014717;28;20050;-69
2022/05/12 04:45:55;;;;;;;7.47;5.55;;;;;;;;;;5013843;28;20049;-69
2022/05/12 04:48:29;;;;;;;8.48;5.28;;;;;;;;;;5014967;28;20153;-69
2022/05/12 04:50:58;;;;;;;8.23;5.72;;;;;;;;;;5015982;28;20053;-68
2022/05/12 04:53:27;;;;;;;9.27;5.90;;;;;;;;;;5013641;28;20116;-67
2022/05/12 04:55:57;;;;;;;6.25;5.13;;;;;;;;;;5014669;28;20049;-67
2022/05/12 04:58:26;;;;;;;14.23;5.82;;;;;;;;;;5014087;28;20470;-67
2022/05/12 05:00:54;;;;;;;7.00;5.88;;;;;;;;;;5014154;28;20512;-69
2022/05/12 05:03:22;;;;;;;13.38;5.60;;;;;;;;;;5014139;28;20497;-69
2022/05/12 05:05:51;;;;;;;10.02;6.20;;;;;;;;;;5013970;28;20084;-69
2022/05/12 05:08:25;;;;;;;11.73;5.55;;;;;;;;;;5013434;28;20048;-69
2022/05/12 05:10:53;;;;;;;7.00;4.70;;;;;;;;;;5014006;28;20046;-70
2022/05/12 05:13:23;;;;;;;12.77;4.75;;;;;;;;;;5013680;28;20144;-67
2022/05/12 05:15:51;;;;;;;10.82;5.65;;;;;;;;;;5013471;28;20148;-68
2022/05/12 05:18:21;;;;;;;6.53;4.70;;;;;;;;;;5012173;28;20140;-69
2022/05/12 05:20:49;;;;;;;8.70;5.03;;;;;;;;;;5013661;28;20072;-68
2022/05/12 05:23:21;;;;;;;12.38;5.15;;;;;;;;;;5014019;28;20066;-68
2022/05/12 05:25:51;;;;;;;20.48;6.05;;;;;;;;;;5013761;28;20397;-68
2022/05/12 05:28:21;;;;;;;21.67;6.50;;;;;;;;;;5013063;28;20038;-70
2022/05/12 05:30:50;;;;;;;10.57;4.97;;;;;;;;;;5011868;28;20049;-69
2022/05/12 05:33:19;;;;;;;14.32;5.15;;;;;;;;;;5011884;28;20046;-70
2022/05/12 05:35:48;;;;;;;10.18;5.55;;;;;;;;;;5010589;28;20034;-73
2022/05/12 05:38:17;;;;;;;15.23;5.78;;;;;;;;;;5011878;28;20391;-70
2022/05/12 05:40:45;;;;;;;7.18;5.22;;;;;;;;;;5011705;28;20081;-73
2022/05/12 05:43:15;;;;;;;9.68;4.78;;;;;;;;;;5012004;28;20049;-73
2022/05/12 05:45:43;;;;;;;14.13;4.53;;;;;;;;;;5012364;28;20133;-73
2022/05/12 05:48:11;;;;;;;8.50;4.60;;;;;;;;;;5011009;28;20042;-73
2022/05/12 05:53:32;;;;;;;9.20;3.90;;;;;;;;;;5013548;28;20053;-73
2022/05/12 05:56:01;;;;;;;6.63;4.55;;;;;;;;;;5013025;28;20112;-72
2022/05/12 05:58:30;;;;;;;12.32;4.38;;;;;;;;;;5013095;28;20125;-72
2022/05/12 06:00:58;;;;;;;10.38;5.07;;;;;;;;;;5013674;28;20129;-70
2022/05/12 06:03:27;;;;;;;5.70;4.50;;;;;;;;;;5010644;28;20049;-73
2022/05/12 06:05:56;;;;;;;14.23;4.55;;;;;;;;;;5008116;28;20441;-75
2022/05/12 06:08:23;;;;;;;10.90;4.40;;;;;;;;;;5012172;28;20077;-74
2022/05/12 06:11:04;;;;;;;15.25;4.30;;;;;;;;;;5012072;28;20485;-69
2022/05/12 06:13:34;;;;;;;11.85;4.20;;;;;;;;;;5012506;28;20052;-70
2022/05/12 06:16:05;;;;;;;13.98;4.07;;;;;;;;;;5012571;28;20064;-75
2022/05/12 06:18:36;;;;;;;4.85;3.13;;;;;;;;;;5013392;28;20120;-74
2022/05/12 06:21:04;;;;;;;5.75;3.58;;;;;;;;;;5011310;28;20425;-74
2022/05/12 06:23:35;;;;;;;5.18;2.90;;;;;;;;;;5012153;28;20069;-74
2022/05/12 06:26:02;;;;;;;6.53;4.43;;;;;;;;;;5013275;28;20053;-73
2022/05/12 06:28:31;;;;;;;7.65;3.55;;;;;;;;;;5023204;28;20046;-73
2022/05/12 06:31:00;;;;;;;4.95;3.13;;;;;;;;;;5037253;28;20103;-73
2022/05/12 06:33:28;;;;;;;11.38;3.95;;;;;;;;;;5028222;28;20482;-72
2022/05/12 06:35:58;;;;;;;8.90;2.95;;;;;;;;;;5017077;28;20052;-68
2022/05/12 06:38:26;;;;;;;7.95;3.55;;;;;;;;;;5035828;28;20056;-73
2022/05/12 06:40:55;;;;;;;5.50;3.67;;;;;;;;;;5036556;28;20531;-73
2022/05/12 06:43:24;;;;;;;11.52;4.05;;;;;;;;;;5035911;28;20080;-73
2022/05/12 06:45:51;;;;;;;7.00;3.42;;;;;;;;;;5036869;28;20057;-73
2022/05/12 06:48:20;;;;;;;8.80;3.92;;;;;;;;;;5036202;28;20512;-73
2022/05/12 06:50:50;;;;;;;8.48;4.03;;;;;;;;;;5036866;28;20057;-74
2022/05/12 06:53:18;;;;;;;6.70;4.00;;;;;;;;;;5036736;28;20053;-73
2022/05/12 06:55:47;;;;;;;7.45;4.57;;;;;;;;;;5036156;28;20045;-73
2022/05/12 06:58:17;;;;;;;9.57;4.03;;;;;;;;;;5036474;28;20041;-74
2022/05/12 07:00:46;;;;;;;7.85;4.43;;;;;;;;;;5035881;28;20483;-74
2022/05/12 07:03:14;;;;;;;9.15;3.90;;;;;;;;;;5036838;28;20057;-74
2022/05/12 07:05:44;;;;;;;8.70;4.82;;;;;;;;;;5016286;28;20052;-73
2022/05/12 07:08:13;;;;;;;12.02;5.10;;;;;;;;;;5016855;28;20133;-74
2022/05/12 07:10:42;;;;;;;6.43;4.65;;;;;;;;;;5016426;28;20610;-73
2022/05/12 07:13:18;;;;;;;6.80;4.75;;;;;;;;;;5016560;28;20145;-74
2022/05/12 07:16:09;;;;;;;10.75;4.93;;;;;;;;;;5016916;28;20124;-74
2022/05/12 07:18:41;;;;;;;12.93;4.10;;;;;;;;;;5017059;28;20044;-73
2022/05/12 07:26:53;;;;;;;7.15;4.93;;;;;;;;;;5014870;28;20060;-74
2022/05/12 07:29:26;;;;;;;11.65;5.70;;;;;;;;;;4996482;28;20483;-75
2022/05/12 07:31:55;;;;;;;10.50;5.55;;;;;;;;;;5000282;28;20054;-72
2022/05/12 07:34:25;;;;;;;7.43;4.65;;;;;;;;;;5015945;28;20050;-73
2022/05/12 07:36:54;;;;;;;12.60;5.40;;;;;;;;;;5015498;28;20050;-73
2022/05/12 07:39:27;;;;;;;7.40;4.72;;;;;;;;;;5015290;28;20137;-73
2022/05/12 07:41:56;;;;;;;8.77;5.57;;;;;;;;;;5016060;28;20076;-73
2022/05/12 07:44:32;;;;;;;11.45;6.05;;;;;;;;;;5015782;28;20054;-72
2022/05/12 07:47:09;;;;;;;9.85;5.53;;;;;;;;;;5015847;28;20046;-74
2022/05/12 07:49:39;;;;;;;6.85;5.53;;;;;;;;;;5015329;28;20078;-73
2022/05/12 07:52:14;;;;;;;14.43;5.93;;;;;;;;;;5015776;28;20042;-73
2022/05/12 07:54:42;;;;;;;12.13;5.68;;;;;;;;;;5015397;28;20050;-72
2022/05/12 07:57:11;;;;;;;7.30;5.53;;;;;;;;;;5015791;28;20133;-73
2022/05/12 07:59:42;;;;;;;10.50;6.05;;;;;;;;;;5015634;28;20058;-74
2022/05/12 08:02:15;;;;;;;7.50;5.80;;;;;;;;;;5015300;28;20056;-73
2022/05/12 08:04:44;;;;;;;8.40;4.68;;;;;;;;;;5015501;28;20054;-72
2022/05/12 08:07:13;;;;;;;9.10;5.65;;;;;;;;;;5014948;28;20401;-73
2022/05/12 08:09:43;;;;;;;8.35;5.68;;;;;;;;;;5015631;28;20132;-74
2022/05/12 08:12:12;;;;;;;9.00;4.60;;;;;;;;;;5015091;28;20161;-72
2022/05/12 08:14:41;;;;;;;7.97;5.20;;;;;;;;;;5015149;28;20073;-73
2022/05/12 08:17:11;;;;;;;11.68;5.85;;;;;;;;;;5014258;28;20478;-73
2022/05/12 08:19:39;;;;;;;9.88;4.57;;;;;;;;;;5014537;28;20141;-73
2022/05/12 08:22:08;;;;;;;8.32;4.13;;;;;;;;;;5015293;28;20054;-72
2022/05/12 08:24:36;;;;;;;6.35;4.07;;;;;;;;;;5014051;28;20462;-73
2022/05/12 08:27:08;;;;;;;9.65;4.03;;;;;;;;;;5014843;28;20054;-73
2022/05/12 08:29:36;;;;;;;6.15;5.32;;;;;;;;;;5014550;28;20052;-75
2022/05/12 08:32:04;;;;;;;10.90;4.35;;;;;;;;;;5014884;28;20053;-73
2022/05/12 08:34:32;;;;;;;7.90;5.72;;;;;;;;;;5014207;28;20049;-73
2022/05/12 08:37:01;;;;;;;8.85;5.38;;;;;;;;;;5014609;28;20053;-75
2022/05/12 08:39:35;;;;;;;9.43;5.95;;;;;;;;;;5014507;28;20054;-74
2022/05/12 08:42:29;;;;;;;7.32;4.65;;;;;;;;;;5015087;28;20096;-72
2022/05/12 08:44:59;;;;;;;10.27;6.18;;;;;;;;;;5014317;28;20049;-75
2022/05/12 08:47:31;;;;;;;7.55;3.95;;;;;;;;;;5014733;28;20038;-72
2022/05/12 08:49:59;;;;;;;9.85;5.90;;;;;;;;;;5013489;28;20042;-73
2022/05/12 08:52:38;;;;;;;8.88;4.45;;;;;;;;;;5014220;28;20057;-72
2022/05/12 08:55:11;;;;;;;11.27;4.75;;;;;;;;;;5014462;28;20075;-72
2022/05/12 08:57:46;;;;;;;13.18;4.95;;;;;;;;;;5013219;28;20038;-73
2022/05/12 09:00:15;;;;;;;10.27;6.35;;;;;;;;;;5013682;28;20054;-77
2022/05/12 09:03:23;;;;;;;9.88;5.82;;;;;;;;;;5014161;28;20136;-74
2022/05/12 09:06:00;;;;;;;6.70;5.65;;;;;;;;;;4994123;28;20085;-74
2022/05/12 09:08:35;;;;;;;8.02;4.30;;;;;;;;;;5012822;28;20484;-74
2022/05/12 09:11:15;;;;;;;8.45;6.55;;;;;;;;;;5014448;28;20069;-73
2022/05/12 09:13:49;;;;;;;9.30;4.80;;;;;;;;;;5014291;28;20057;-74
2022/05/12 09:16:17;;;;;;;;;;;;;;;;;;5014805;28;20041;-74
2022/05/12 09:18:47;;;;;;;9.15;5.20;;;;;;;;;;5013436;28;20308;-74
2022/05/12 09:21:18;;;;;;;9.45;5.10;;;;;;;;;;5014210;28;20512;-74
2022/05/12 09:23:46;;;;;;;8.05;4.82;;;;;;;;;;5012595;28;20077;-73
2022/05/12 09:26:31;;;;;;;7.28;4.35;;;;;;;;;;5014437;28;20053;-76
2022/05/12 09:29:27;;;;;;;15.30;6.22;;;;;;;;;;5013660;28;20060;-74
2022/05/12 09:31:57;;;;;;;14.73;4.93;;;;;;;;;;5014407;28;20141;-74
2022/05/12 09:34:34;;;;;;;7.47;4.60;;;;;;;;;;5012607;28;20128;-73
2022/05/12 09:37:26;;;;;;;8.80;4.60;;;;;;;;;;5013868;28;20050;-73
2022/05/12 09:39:57;;;;;;;7.07;3.42;;;;;;;;;;5008248;28;20136;-74
2022/05/12 09:42:28;;;;;;;9.32;3.97;;;;;;;;;;5013994;28;20065;-74
2022/05/12 09:45:05;;;;;;;7.90;4.38;;;;;;;;;;5014206;28;20125;-74
2022/05/12 09:47:35;;;;;;;7.18;5.00;;;;;;;;;;5013519;28;20060;-74
2022/05/12 09:50:22;;;;;;;12.63;4.13;;;;;;;;;;5013634;28;20050;-74
2022/05/12 09:53:00;;;;;;;8.38;3.92;;;;;;;;;;5012609;28;20417;-73
2022/05/12 09:55:38;;;;;;;9.95;4.30;;;;;;;;;;5013767;28;20050;-73
2022/05/12 09:58:38;;;;;;;10.88;5.05;;;;;;;;;;5013385;28;20076;-72
2022/05/12 10:01:23;;;;;;;15.15;4.55;;;;;;;;;;5014151;28;20061;-77
2022/05/12 10:09:33;;;;;;;9.52;5.05;;;;;;;;;;5016867;28;20037;-75
2022/05/12 10:12:23;;;;;;;13.60;5.80;;;;;;;;;;5017768;28;20054;-73
2022/05/12 10:15:03;;;;;;;8.20;4.57;;;;;;;;;;5016386;28;20149;-74
2022/05/12 10:17:54;;;;;;;7.90;5.28;;;;;;;;;;5017481;28;20046;-76
2022/05/12 10:20:25;;;;;;;10.77;5.18;;;;;;;;;;5004176;28;20560;-75
2022/05/12 10:23:22;;;;;;;14.85;5.78;;;;;;;;;;5016070;28;20046;-74
2022/05/12 10:26:03;;;;;;;11.07;5.07;;;;;;;;;;5032183;28;20070;-73
2022/05/12 10:28:39;;;;;;;9.20;4.05;;;;;;;;;;5029637;28;20054;-74
2022/05/12 10:31:33;;;;;;;8.05;4.10;;;;;;;;;;5036967;28;20132;-75
2022/05/12 10:34:31;;;;;;;9.52;3.65;;;;;;;;;;5030437;28;20049;-75
2022/05/12 10:37:17;;;;;;;9.35;3.72;;;;;;;;;;5017167;28;20050;-76
2022/05/12 10:40:10;;;;;;;8.68;4.32;;;;;;;;;;5015750;28;20081;-73
2022/05/12 10:42:45;;;;;;;7.82;3.85;;;;;;;;;;5013312;28;20041;-66
2022/05/12 10:45:38;;;;;;;12.68;3.58;;;;;;;;;;5015855;28;20078;-67
2022/05/12 10:49:19;;;;;;;12.63;4.45;;;;;;;;;;5015242;28;20137;-67
2022/05/12 10:52:13;;;;;;;9.32;4.25;;;;;;;;;;4901715;29;20088;-67
2022/05/12 10:54:41;;;;;;;11.48;3.47;;;;;;;;;;5004077;28;20555;-67
2022/05/12 10:57:25;;;;;;;8.43;3.42;;;;;;;;;;5014938;28;20052;-68
2022/05/12 11:00:08;;;;;;;6.53;3.10;;;;;;;;;;5005102;28;20528;-70
2022/05/12 11:02:37;;;;;;;9.90;2.92;;;;;;;;;;5009399;28;20042;-66
2022/05/12 11:05:22;;;;;;;10.48;4.90;;;;;;;;;;5013576;28;20046;-66
2022/05/12 11:08:09;;;;;;;6.85;2.80;;;;;;;;;;5015639;28;20057;-66
2022/05/12 11:10:42;;;;;;;8.13;4.32;;;;;;;;;;5015540;28;20046;-68
2022/05/12 11:13:28;;;;;;;6.57;3.70;;;;;;;;;;5014245;28;20057;-68
2022/05/12 11:16:04;;;;;;;10.02;3.75;;;;;;;;;;5008165;28;20058;-67
2022/05/12 11:18:44;;;;;;;10.18;4.40;;;;;;;;;;5006913;28;20409;-66
2022/05/12 11:21:18;;;;;;;8.88;3.65;;;;;;;;;;5008715;28;20065;-66
2022/05/12 11:24:19;;;;;;;8.45;3.25;;;;;;;;;;5021809;28;20054;-69
2022/05/12 11:27:03;;;;;;;4.93;3.03;;;;;;;;;;5014186;28;20059;-68
2022/05/12 11:30:07;;;;;;;11.15;3.20;;;;;;;;;;5015726;28;20048;-68
2022/05/12 11:33:02;;;;;;;5.45;2.92;;;;;;;;;;5000370;28;20125;-68
2022/05/12 11:35:33;;;;;;;6.53;2.75;;;;;;;;;;5015434;28;20046;-66
2022/05/12 11:38:10;;;;;;;5.10;3.45;;;;;;;;;;5030039;28;20056;-68
2022/05/12 11:40:41;;;;;;;14.23;3.67;;;;;;;;;;5030412;28;20060;-68
2022/05/12 11:46:39;;;;;;;7.57;4.00;;;;;;;;;;5015709;28;20061;-68
2022/05/12 11:49:32;;;;;;;4.82;2.90;;;;;;;;;;5012900;28;20480;-66
2022/05/12 11:52:24;;;;;;;10.53;2.90;;;;;;;;;;5015152;28;20068;-68
2022/05/12 11:54:55;;;;;;;7.05;2.92;;;;;;;;;;5014275;28;20061;-73
2022/05/12 11:57:32;;;;;;;7.03;3.10;;;;;;;;;;5013539;28;20049;-76
2022/05/12 12:00:01;;;;;;;10.15;3.08;;;;;;;;;;5014270;28;20092;-76
2022/05/12 12:03:15;;;;;;;8.95;2.95;;;;;;;;;;5012182;28;20152;-76
2022/05/12 12:05:43;;;;;;;10.23;3.03;;;;;;;;;;5013798;28;20053;-75
2022/05/12 12:08:10;;;;;;;11.48;4.55;;;;;;;;;;5027393;28;20049;-75
2022/05/12 12:10:41;;;;;;;8.18;2.95;;;;;;;;;;5015109;28;20080;-63
2022/05/12 12:13:31;;;;;;;9.70;3.83;;;;;;;;;;5014672;28;20124;-64
2022/05/12 12:16:13;;;;;;;7.60;2.22;;;;;;;;;;5015190;28;20048;-65
2022/05/12 12:18:57;;;;;;;5.25;2.42;;;;;;;;;;5013746;28;20048;-64
2022/05/12 12:21:41;;;;;;;6.63;2.38;;;;;;;;;;5013160;28;20515;-67
2022/05/12 12:24:20;;;;;;;9.35;3.88;;;;;;;;;;5014508;28;20065;-65
2022/05/12 12:27:12;;;;;;;6.25;2.65;;;;;;;;;;5014117;28;20054;-65
2022/05/12 12:29:47;;;;;;;6.25;2.22;;;;;;;;;;5014336;28;20202;-65
2022/05/12 12:32:27;;;;;;;5.18;3.33;;;;;;;;;;5013407;28;20497;-65
2022/05/12 12:35:13;;;;;;;9.30;2.50;;;;;;;;;;4994899;28;20070;-66
2022/05/12 12:37:50;;;;;;;7.72;2.67;;;;;;;;;;5014515;28;20536;-66
2022/05/12 12:40:44;;;;;;;8.10;2.95;;;;;;;;;;5013936;28;20460;-66
2022/05/12 12:43:24;;;;;;;13.00;3.10;;;;;;;;;;5014800;28;20045;-65
2022/05/12 12:45:54;;;;;;;9.20;3.00;;;;;;;;;;5012346;28;20054;-65
2022/05/12 12:48:34;;;;;;;6.90;2.60;;;;;;;;;;5014385;28;20080;-67
2022/05/12 12:51:09;;;;;;;6.82;2.72;;;;;;;;;;5014297;28;20042;-67
2022/05/12 12:56:31;;;;;;;5.18;2.97;;;;;;;;;;5013223;28;20065;-69
2022/05/12 12:59:25;;;;;;;10.52;3.08;;;;;;;;;;5014202;28;20054;-67
2022/05/12 13:02:00;;;;;;;12.63;3.03;;;;;;;;;;5012546;28;20050;-67
2022/05/12 13:04:37;;;;;;;10.35;3.65;;;;;;;;;;5013555;28;20045;-66
2022/05/12 13:07:11;;;;;;;9.93;3.47;;;;;;;;;;5013671;28;20045;-67
2022/05/12 13:09:47;;;;;;;8.00;2.97;;;;;;;;;;5011811;28;20042;-67
2022/05/12 13:12:26;;;;;;;8.13;3.58;;;;;;;;;;5010622;28;20076;-66
2022/05/12 13:15:00;;;;;;;7.43;3.25;;;;;;;;;;5011174;28;20505;-67
2022/05/12 13:17:41;;;;;;;10.27;3.97;;;;;;;;;;5011178;28;20050;-67
2022/05/12 13:20:21;;;;;;;11.85;3.55;;;;;;;;;;5009725;28;20046;-67
2022/05/12 13:23:06;;;;;;;6.80;3.30;;;;;;;;;;5012601;28;20141;-68
2022/05/12 13:25:58;;;;;;;4.80;3.38;;;;;;;;;;5011894;28;20038;-67
2022/05/12 13:28:29;;;;;;;9.52;2.88;;;;;;;;;;5012574;28;20069;-65
2022/05/12 13:31:41;;;;;;;8.93;3.33;;;;;;;;;;5011544;28;20513;-64
2022/05/12 13:34:13;;;;;;;8.15;3.15;;;;;;;;;;4967415;28;20049;-64
2022/05/12 13:36:42;;;;;;;8.80;2.65;;;;;;;;;;5012685;28;20076;-65
2022/05/12 13:39:13;;;;;;;8.23;3.20;;;;;;;;;;5012521;28;20046;-66
2022/05/12 13:41:47;;;;;;;8.38;3.55;;;;;;;;;;5023077;28;20042;-67
2022/05/12 13:44:22;;;;;;;10.68;3.53;;;;;;;;;;5010574;28;20476;-66
2022/05/12 13:47:18;;;;;;;4.10;2.72;;;;;;;;;;5012033;28;20042;-64
2022/05/12 13:49:50;;;;;;;4.80;3.22;;;;;;;;;;5010258;28;20080;-67
2022/05/12 13:52:40;;;;;;;8.85;3.40;;;;;;;;;;5012437;28;20042;-65
2022/05/12 13:55:27;;;;;;;11.55;2.63;;;;;;;;;;5011451;28;20044;-65
2022/05/12 13:58:03;;;;;;;10.30;2.90;;;;;;;;;;5011395;28;20095;-65
2022/05/12 14:00:42;;;;;;;9.75;2.88;;;;;;;;;;5012828;28;20486;-65
2022/05/12 14:03:51;;;;;;;7.95;3.40;;;;;;;;;;5025896;28;20077;-65
2022/05/12 14:06:28;;;;;;;6.57;2.97;;;;;;;;;;5025732;28;20453;-65
2022/05/12 14:09:17;;;;;;;8.73;3.25;;;;;;;;;;5010385;28;20112;-65
2022/05/12 14:12:18;;;;;;;6.93;3.63;;;;;;;;;;5016749;28;20485;-65
2022/05/12 14:20:35;;;;;;;7.70;3.13;;;;;;;;;;5012732;28;20045;-66
2022/05/12 14:23:04;;;;;;;5.80;2.97;;;;;;;;;;5010651;28;20053;-65
2022/05/12 14:25:33;;;;;;;13.10;3.67;;;;;;;;;;5011954;28;20042;-65
2022/05/12 14:28:05;;;;;;;10.68;2.70;;;;;;;;;;5012825;28;20038;-65
2022/05/12 14:30:34;;;;;;;11.07;3.90;;;;;;;;;;5010823;28;20077;-65
2022/05/12 14:33:04;;;;;;;7.72;3.17;;;;;;;;;;5012709;28;20053;-65
2022/05/12 14:35:34;;;;;;;9.70;3.50;;;;;;;;;;5026736;28;20914;-67
2022/05/12 14:38:05;;;;;;;6.70;2.58;;;;;;;;;;5027469;28;20057;-67
2022/05/12 14:40:34;;;;;;;7.43;3.00;;;;;;;;;;5012803;28;20053;-66
2022/05/12 14:43:06;;;;;;;9.75;4.07;;;;;;;;;;5011539;28;20394;-66
2022/05/12 14:45:37;;;;;;;10.15;3.58;;;;;;;;;;5012573;28;20080;-64
2022/05/12 14:48:09;;;;;;;8.90;2.85;;;;;;;;;;5010506;28;20107;-65
2022/05/12 14:50:43;;;;;;;8.65;2.65;;;;;;;;;;5015356;28;20076;-64
2022/05/12 14:53:14;;;;;;;;;;;;;;;;;;5015771;28;20072;-65
2022/05/12 14:55:45;;;;;;;8.73;2.95;;;;;;;;;;5014911;28;19939;-64
2022/05/12 14:58:17;;;;;;;8.07;4.35;;;;;;;;;;5015638;28;20046;-65
2022/05/12 15:00:48;;;;;;;8.02;2.80;;;;;;;;;;5015458;28;20489;-67
2022/05/12 15:03:16;;;;;;;11.02;3.88;;;;;;;;;;5014845;28;20099;-64
2022/05/12 15:05:46;;;;;;;10.75;3.00;;;;;;;;;;5013861;28;20038;-65
2022/05/12 15:08:15;;;;;;;7.85;2.67;;;;;;;;;;5018699;28;20128;-66
2022/05/12 15:10:50;;;;;;;6.93;3.28;;;;;;;;;;5013352;28;20054;-66
2022/05/12 15:13:19;;;;;;;7.25;2.80;;;;;;;;;;5014498;28;20057;-68
2022/05/12 15:15:48;;;;;;;6.85;2.92;;;;;;;;;;5014725;28;20124;-68
2022/05/12 15:18:21;;;;;;;22.73;3.75;;;;;;;;;;5008381;28;20061;-69
2022/05/12 15:20:50;;;;;;;11.57;3.88;;;;;;;;;;5014919;28;20054;-68
2022/05/12 15:23:23;;;;;;;3.60;2.55;;;;;;;;;;5015331;28;20054;-69
2022/05/12 15:25:52;;;;;;;8.23;2.60;;;;;;;;;;5014615;28;20045;-69
2022/05/12 15:28:24;;;;;;;5.30;3.00;;;;;;;;;;5013720;28;20033;-69
2022/05/12 15:30:53;;;;;;;;;;;;;;;;;;5015561;28;20124;-70
2022/05/12 15:33:23;;;;;;;10.77;2.80;;;;;;;;;;5014417;28;19927;-70
2022/05/12 15:35:56;;;;;;;6.22;2.50;;;;;;;;;;5014585;28;20445;-70
2022/05/12 15:38:26;;;;;;;15.93;4.32;;;;;;;;;;5013927;28;20050;-68
2022/05/12 15:40:58;;;;;;;4.65;3.17;;;;;;;;;;5011185;28;20375;-67
2022/05/12 15:43:32;;;;;;;7.25;2.60;;;;;;;;;;5013725;28;20493;-68
2022/05/12 15:46:06;;;;;;;10.98;3.03;;;;;;;;;;5014900;28;20046;-67
2022/05/12 15:48:36;;;;;;;15.45;3.10;;;;;;;;;;5015325;28;20118;-66